Main page
METAR-TAF:

METAR-TAF

Airports :

Porterville Municipal Airport

Porterville, California, United States

latitude: 36-02N, longitude: 119-04W, elevation: 443 ft

Current weather observation

The report was made 14 minutes ago, at 16:56 UTC
Wind 5 mph from the South
Temperature 77°F
Humidity 47%
Pressure 29.84 in. Hg
Visibility: 10 miles
Clear sky

METAR: KPTV 221656Z AUTO 18004KT 10SM CLR 25/13 A2984 RMK AO2 SLP101 T02500133

Time: 10:10 (17:10 UTC)


TAF: missing

Weather observations and forecasts of more than 4000 airports (METAR and TAF reports).

The available stations are represented by yellow and red dots on the map.

Hover mouse over dot to see the name of the station.

Then click to see weather observations and forecasts.

To change the map : click on the green buttons with a black cross to zoom in, on the green button with a dash to zoom out, or on the green arrows for adjacent maps.


METAR-TAF: